sensor_id;sensor_type;location;lat;lon;timestamp;temperature;humidity
67182;DHT22;54114;53.524;49.396;2022-11-20T00:02:01;3.40;78.50
67182;DHT22;54114;53.524;49.396;2022-11-20T00:04:28;3.40;78.40
67182;DHT22;54114;53.524;49.396;2022-11-20T00:06:54;3.40;78.40
67182;DHT22;54114;53.524;49.396;2022-11-20T00:09:20;3.30;78.30
67182;DHT22;54114;53.524;49.396;2022-11-20T00:11:47;3.30;78.70
67182;DHT22;54114;53.524;49.396;2022-11-20T00:14:13;3.30;78.70
67182;DHT22;54114;53.524;49.396;2022-11-20T00:16:39;3.30;78.60
67182;DHT22;54114;53.524;49.396;2022-11-20T00:19:06;3.30;78.50
67182;DHT22;54114;53.524;49.396;2022-11-20T00:21:32;3.20;78.50
67182;DHT22;54114;53.524;49.396;2022-11-20T00:23:58;3.20;78.70
67182;DHT22;54114;53.524;49.396;2022-11-20T00:26:25;3.20;78.70
67182;DHT22;54114;53.524;49.396;2022-11-20T00:28:53;3.20;78.90
67182;DHT22;54114;53.524;49.396;2022-11-20T00:31:21;3.20;78.90
67182;DHT22;54114;53.524;49.396;2022-11-20T00:33:48;3.20;78.80
67182;DHT22;54114;53.524;49.396;2022-11-20T00:36:18;3.20;78.80
67182;DHT22;54114;53.524;49.396;2022-11-20T00:38:45;3.20;79.00
67182;DHT22;54114;53.524;49.396;2022-11-20T00:41:13;3.30;79.20
67182;DHT22;54114;53.524;49.396;2022-11-20T00:43:40;3.30;79.00
67182;DHT22;54114;53.524;49.396;2022-11-20T00:46:08;3.30;78.90
67182;DHT22;54114;53.524;49.396;2022-11-20T00:48:36;3.30;78.80
67182;DHT22;54114;53.524;49.396;2022-11-20T00:51:03;3.30;78.70
67182;DHT22;54114;53.524;49.396;2022-11-20T00:53:29;3.30;78.70
67182;DHT22;54114;53.524;49.396;2022-11-20T00:55:57;3.30;78.70
67182;DHT22;54114;53.524;49.396;2022-11-20T00:58:24;3.30;78.50
67182;DHT22;54114;53.524;49.396;2022-11-20T01:00:51;3.30;78.40
67182;DHT22;54114;53.524;49.396;2022-11-20T01:03:18;3.30;78.30
67182;DHT22;54114;53.524;49.396;2022-11-20T01:05:45;3.30;78.30
67182;DHT22;54114;53.524;49.396;2022-11-20T01:08:11;3.30;78.40
67182;DHT22;54114;53.524;49.396;2022-11-20T01:10:38;3.20;78.20
67182;DHT22;54114;53.524;49.396;2022-11-20T01:13:04;3.30;78.30
67182;DHT22;54114;53.524;49.396;2022-11-20T01:15:49;3.20;78.20
67182;DHT22;54114;53.524;49.396;2022-11-20T01:18:15;3.20;78.10
67182;DHT22;54114;53.524;49.396;2022-11-20T01:20:42;3.20;78.10
67182;DHT22;54114;53.524;49.396;2022-11-20T01:23:08;3.20;78.20
67182;DHT22;54114;53.524;49.396;2022-11-20T01:25:34;3.10;78.80
67182;DHT22;54114;53.524;49.396;2022-11-20T01:28:01;3.20;78.60
67182;DHT22;54114;53.524;49.396;2022-11-20T01:30:28;3.20;78.20
67182;DHT22;54114;53.524;49.396;2022-11-20T01:32:55;3.20;78.20
67182;DHT22;54114;53.524;49.396;2022-11-20T01:35:21;3.10;78.20
67182;DHT22;54114;53.524;49.396;2022-11-20T01:37:49;3.10;78.30
67182;DHT22;54114;53.524;49.396;2022-11-20T01:40:16;3.10;78.30
67182;DHT22;54114;53.524;49.396;2022-11-20T01:42:47;3.10;78.30
67182;DHT22;54114;53.524;49.396;2022-11-20T01:51:29;3.20;78.40
67182;DHT22;54114;53.524;49.396;2022-11-20T01:53:59;3.10;78.30
67182;DHT22;54114;53.524;49.396;2022-11-20T01:56:28;3.20;78.40
67182;DHT22;54114;53.524;49.396;2022-11-20T01:58:56;3.20;78.60
67182;DHT22;54114;53.524;49.396;2022-11-20T02:01:24;3.20;78.60
67182;DHT22;54114;53.524;49.396;2022-11-20T02:03:51;3.20;78.50
67182;DHT22;54114;53.524;49.396;2022-11-20T02:09:25;3.30;78.40
67182;DHT22;54114;53.524;49.396;2022-11-20T02:11:51;3.30;78.50
67182;DHT22;54114;53.524;49.396;2022-11-20T02:14:18;3.40;78.40
67182;DHT22;54114;53.524;49.396;2022-11-20T02:16:46;3.40;78.30
67182;DHT22;54114;53.524;49.396;2022-11-20T02:19:23;3.40;78.30
67182;DHT22;54114;53.524;49.396;2022-11-20T02:24:40;3.50;78.30
67182;DHT22;54114;53.524;49.396;2022-11-20T02:27:09;3.50;78.30
67182;DHT22;54114;53.524;49.396;2022-11-20T02:30:10;3.50;78.30
67182;DHT22;54114;53.524;49.396;2022-11-20T02:32:34;3.50;78.20
67182;DHT22;54114;53.524;49.396;2022-11-20T02:35:38;3.50;78.30
67182;DHT22;54114;53.524;49.396;2022-11-20T02:37:58;3.40;78.30
67182;DHT22;54114;53.524;49.396;2022-11-20T02:40:25;3.40;78.40
67182;DHT22;54114;53.524;49.396;2022-11-20T02:42:52;3.40;78.40
67182;DHT22;54114;53.524;49.396;2022-11-20T02:45:19;3.50;78.50
67182;DHT22;54114;53.524;49.396;2022-11-20T02:47:45;3.50;78.50
67182;DHT22;54114;53.524;49.396;2022-11-20T02:50:12;3.50;78.30
67182;DHT22;54114;53.524;49.396;2022-11-20T02:52:38;3.60;78.40
67182;DHT22;54114;53.524;49.396;2022-11-20T02:55:05;3.60;78.30
67182;DHT22;54114;53.524;49.396;2022-11-20T02:57:32;3.60;78.20
67182;DHT22;54114;53.524;49.396;2022-11-20T02:59:58;3.60;78.10
67182;DHT22;54114;53.524;49.396;2022-11-20T03:02:24;3.60;78.10
67182;DHT22;54114;53.524;49.396;2022-11-20T03:04:51;3.60;78.00
67182;DHT22;54114;53.524;49.396;2022-11-20T03:07:17;3.60;77.90
67182;DHT22;54114;53.524;49.396;2022-11-20T03:09:43;3.60;77.90
67182;DHT22;54114;53.524;49.396;2022-11-20T03:12:10;3.60;78.10
67182;DHT22;54114;53.524;49.396;2022-11-20T03:14:36;3.60;78.10
67182;DHT22;54114;53.524;49.396;2022-11-20T03:17:02;3.60;78.10
67182;DHT22;54114;53.524;49.396;2022-11-20T03:19:29;3.70;78.10
67182;DHT22;54114;53.524;49.396;2022-11-20T03:21:55;3.70;78.10
67182;DHT22;54114;53.524;49.396;2022-11-20T03:24:22;3.70;78.10
67182;DHT22;54114;53.524;49.396;2022-11-20T03:26:48;3.70;78.10
67182;DHT22;54114;53.524;49.396;2022-11-20T03:29:14;3.70;78.10
67182;DHT22;54114;53.524;49.396;2022-11-20T03:31:41;3.80;78.10
67182;DHT22;54114;53.524;49.396;2022-11-20T03:34:08;3.80;78.00
67182;DHT22;54114;53.524;49.396;2022-11-20T03:36:37;3.80;77.90
67182;DHT22;54114;53.524;49.396;2022-11-20T03:39:07;3.80;77.90
67182;DHT22;54114;53.524;49.396;2022-11-20T03:41:40;3.80;77.90
67182;DHT22;54114;53.524;49.396;2022-11-20T03:44:08;3.70;77.70
67182;DHT22;54114;53.524;49.396;2022-11-20T03:46:36;3.70;77.80
67182;DHT22;54114;53.524;49.396;2022-11-20T03:49:02;3.70;77.90
67182;DHT22;54114;53.524;49.396;2022-11-20T03:51:30;3.70;78.00
67182;DHT22;54114;53.524;49.396;2022-11-20T03:54:01;3.80;78.10
67182;DHT22;54114;53.524;49.396;2022-11-20T03:56:31;3.80;78.10
67182;DHT22;54114;53.524;49.396;2022-11-20T03:58:58;3.80;77.90
67182;DHT22;54114;53.524;49.396;2022-11-20T04:01:26;3.80;77.90
67182;DHT22;54114;53.524;49.396;2022-11-20T04:03:54;3.80;78.00
67182;DHT22;54114;53.524;49.396;2022-11-20T04:06:33;3.80;78.00
67182;DHT22;54114;53.524;49.396;2022-11-20T04:09:00;3.80;78.00
67182;DHT22;54114;53.524;49.396;2022-11-20T04:11:28;3.70;77.90
67182;DHT22;54114;53.524;49.396;2022-11-20T04:13:56;3.70;78.00
67182;DHT22;54114;53.524;49.396;2022-11-20T04:16:24;3.70;78.00
67182;DHT22;54114;53.524;49.396;2022-11-20T04:18:55;3.70;78.00
67182;DHT22;54114;53.524;49.396;2022-11-20T04:21:22;3.70;78.10
67182;DHT22;54114;53.524;49.396;2022-11-20T04:23:49;3.70;78.10
67182;DHT22;54114;53.524;49.396;2022-11-20T04:26:16;3.70;78.10
67182;DHT22;54114;53.524;49.396;2022-11-20T04:28:43;3.70;78.20
67182;DHT22;54114;53.524;49.396;2022-11-20T04:31:14;3.70;77.90
67182;DHT22;54114;53.524;49.396;2022-11-20T04:33:41;3.70;77.90
67182;DHT22;54114;53.524;49.396;2022-11-20T04:36:15;3.70;77.90
67182;DHT22;54114;53.524;49.396;2022-11-20T04:38:42;3.70;78.10
67182;DHT22;54114;53.524;49.396;2022-11-20T04:41:15;3.70;78.20
67182;DHT22;54114;53.524;49.396;2022-11-20T04:43:46;3.70;78.10
67182;DHT22;54114;53.524;49.396;2022-11-20T04:46:17;3.70;78.10
67182;DHT22;54114;53.524;49.396;2022-11-20T04:48:44;3.80;78.10
67182;DHT22;54114;53.524;49.396;2022-11-20T04:51:10;3.80;78.00
67182;DHT22;54114;53.524;49.396;2022-11-20T04:53:38;3.80;78.00
67182;DHT22;54114;53.524;49.396;2022-11-20T04:56:05;3.80;77.90
67182;DHT22;54114;53.524;49.396;2022-11-20T04:58:33;3.80;77.90
67182;DHT22;54114;53.524;49.396;2022-11-20T05:01:00;3.80;78.00
67182;DHT22;54114;53.524;49.396;2022-11-20T05:03:38;3.80;77.90
67182;DHT22;54114;53.524;49.396;2022-11-20T05:06:05;3.80;77.90
67182;DHT22;54114;53.524;49.396;2022-11-20T05:08:33;3.80;78.00
67182;DHT22;54114;53.524;49.396;2022-11-20T05:11:19;3.80;78.00
67182;DHT22;54114;53.524;49.396;2022-11-20T05:13:46;3.80;78.00
67182;DHT22;54114;53.524;49.396;2022-11-20T05:16:14;3.80;78.00
67182;DHT22;54114;53.524;49.396;2022-11-20T05:18:46;3.80;78.10
67182;DHT22;54114;53.524;49.396;2022-11-20T05:21:13;3.80;78.10
67182;DHT22;54114;53.524;49.396;2022-11-20T05:23:40;3.80;78.10
67182;DHT22;54114;53.524;49.396;2022-11-20T05:26:07;3.80;78.10
67182;DHT22;54114;53.524;49.396;2022-11-20T05:28:37;3.80;78.00
67182;DHT22;54114;53.524;49.396;2022-11-20T05:31:04;3.80;78.00
67182;DHT22;54114;53.524;49.396;2022-11-20T05:33:32;3.80;78.00
67182;DHT22;54114;53.524;49.396;2022-11-20T05:35:59;3.80;77.80
67182;DHT22;54114;53.524;49.396;2022-11-20T05:38:25;3.80;77.90
67182;DHT22;54114;53.524;49.396;2022-11-20T05:40:52;3.80;78.10
67182;DHT22;54114;53.524;49.396;2022-11-20T05:43:18;3.80;78.00
67182;DHT22;54114;53.524;49.396;2022-11-20T05:45:54;3.80;78.10
67182;DHT22;54114;53.524;49.396;2022-11-20T05:48:20;3.80;78.10
67182;DHT22;54114;53.524;49.396;2022-11-20T05:50:47;3.90;78.30
67182;DHT22;54114;53.524;49.396;2022-11-20T05:53:14;3.90;78.20
67182;DHT22;54114;53.524;49.396;2022-11-20T05:55:40;4.00;78.00
67182;DHT22;54114;53.524;49.396;2022-11-20T05:58:06;4.00;78.00
67182;DHT22;54114;53.524;49.396;2022-11-20T06:00:33;4.00;78.00
67182;DHT22;54114;53.524;49.396;2022-11-20T06:02:59;4.10;77.90
67182;DHT22;54114;53.524;49.396;2022-11-20T06:05:25;4.20;77.90
67182;DHT22;54114;53.524;49.396;2022-11-20T06:07:52;4.20;77.70
67182;DHT22;54114;53.524;49.396;2022-11-20T06:10:18;4.20;77.70
67182;DHT22;54114;53.524;49.396;2022-11-20T06:12:45;4.30;77.70
67182;DHT22;54114;53.524;49.396;2022-11-20T06:15:11;4.30;77.60
67182;DHT22;54114;53.524;49.396;2022-11-20T06:17:37;4.40;77.60
67182;DHT22;54114;53.524;49.396;2022-11-20T06:20:04;4.40;77.50
67182;DHT22;54114;53.524;49.396;2022-11-20T06:22:31;4.40;77.50
67182;DHT22;54114;53.524;49.396;2022-11-20T06:24:58;4.40;77.60
67182;DHT22;54114;53.524;49.396;2022-11-20T06:27:24;4.50;77.70
67182;DHT22;54114;53.524;49.396;2022-11-20T06:29:50;4.60;77.60
67182;DHT22;54114;53.524;49.396;2022-11-20T06:32:17;4.60;77.50
67182;DHT22;54114;53.524;49.396;2022-11-20T06:34:43;4.70;77.50
67182;DHT22;54114;53.524;49.396;2022-11-20T06:37:10;4.70;77.30
67182;DHT22;54114;53.524;49.396;2022-11-20T06:39:36;4.70;77.10
67182;DHT22;54114;53.524;49.396;2022-11-20T06:42:02;4.80;77.20
67182;DHT22;54114;53.524;49.396;2022-11-20T06:44:29;4.80;77.10
67182;DHT22;54114;53.524;49.396;2022-11-20T06:46:55;4.90;77.10
67182;DHT22;54114;53.524;49.396;2022-11-20T06:49:21;4.90;77.00
67182;DHT22;54114;53.524;49.396;2022-11-20T06:51:48;4.90;77.00
67182;DHT22;54114;53.524;49.396;2022-11-20T06:54:14;5.00;76.90
67182;DHT22;54114;53.524;49.396;2022-11-20T06:56:40;5.00;76.90
67182;DHT22;54114;53.524;49.396;2022-11-20T06:59:07;5.10;76.80
67182;DHT22;54114;53.524;49.396;2022-11-20T07:01:33;5.10;76.60
67182;DHT22;54114;53.524;49.396;2022-11-20T07:04:02;5.10;76.40
67182;DHT22;54114;53.524;49.396;2022-11-20T07:06:29;5.20;76.60
67182;DHT22;54114;53.524;49.396;2022-11-20T07:08:55;5.20;76.40
67182;DHT22;54114;53.524;49.396;2022-11-20T07:11:22;5.20;76.40
67182;DHT22;54114;53.524;49.396;2022-11-20T07:13:49;5.30;76.40
67182;DHT22;54114;53.524;49.396;2022-11-20T07:16:16;5.30;76.20
67182;DHT22;54114;53.524;49.396;2022-11-20T07:18:42;5.40;76.10
67182;DHT22;54114;53.524;49.396;2022-11-20T07:21:09;5.40;76.00
67182;DHT22;54114;53.524;49.396;2022-11-20T07:23:36;5.40;75.90
67182;DHT22;54114;53.524;49.396;2022-11-20T07:26:06;5.40;75.80
67182;DHT22;54114;53.524;49.396;2022-11-20T07:28:33;5.40;75.80
67182;DHT22;54114;53.524;49.396;2022-11-20T07:31:00;5.50;76.00
67182;DHT22;54114;53.524;49.396;2022-11-20T07:33:27;5.60;76.00
67182;DHT22;54114;53.524;49.396;2022-11-20T07:35:53;5.70;75.90
67182;DHT22;54114;53.524;49.396;2022-11-20T07:38:20;5.80;75.70
67182;DHT22;54114;53.524;49.396;2022-11-20T07:40:46;5.80;75.30
67182;DHT22;54114;53.524;49.396;2022-11-20T07:43:12;5.80;75.20
67182;DHT22;54114;53.524;49.396;2022-11-20T07:45:39;5.90;75.20
67182;DHT22;54114;53.524;49.396;2022-11-20T07:48:05;5.90;74.80
67182;DHT22;54114;53.524;49.396;2022-11-20T07:50:32;5.90;74.80
67182;DHT22;54114;53.524;49.396;2022-11-20T07:53:02;5.90;74.70
67182;DHT22;54114;53.524;49.396;2022-11-20T07:55:29;5.90;74.50
67182;DHT22;54114;53.524;49.396;2022-11-20T07:57:56;5.90;74.70
67182;DHT22;54114;53.524;49.396;2022-11-20T08:00:23;5.90;74.50
67182;DHT22;54114;53.524;49.396;2022-11-20T08:02:49;5.80;74.60
67182;DHT22;54114;53.524;49.396;2022-11-20T08:05:16;5.80;74.90
67182;DHT22;54114;53.524;49.396;2022-11-20T08:07:43;5.80;74.90
67182;DHT22;54114;53.524;49.396;2022-11-20T08:10:10;5.80;74.90
67182;DHT22;54114;53.524;49.396;2022-11-20T08:12:48;5.90;75.20
67182;DHT22;54114;53.524;49.396;2022-11-20T08:15:34;5.90;75.30
67182;DHT22;54114;53.524;49.396;2022-11-20T08:18:05;5.90;75.20
67182;DHT22;54114;53.524;49.396;2022-11-20T08:20:33;6.00;75.20
67182;DHT22;54114;53.524;49.396;2022-11-20T08:23:00;6.00;75.00
67182;DHT22;54114;53.524;49.396;2022-11-20T08:25:28;6.00;74.80
67182;DHT22;54114;53.524;49.396;2022-11-20T08:27:59;6.00;74.50
67182;DHT22;54114;53.524;49.396;2022-11-20T08:30:26;6.00;74.50
67182;DHT22;54114;53.524;49.396;2022-11-20T08:32:53;6.10;74.60
67182;DHT22;54114;53.524;49.396;2022-11-20T08:35:20;6.10;74.40
67182;DHT22;54114;53.524;49.396;2022-11-20T08:37:47;6.10;74.20
67182;DHT22;54114;53.524;49.396;2022-11-20T08:40:13;6.10;74.30
67182;DHT22;54114;53.524;49.396;2022-11-20T08:42:49;6.20;74.30
67182;DHT22;54114;53.524;49.396;2022-11-20T08:45:16;6.20;74.30
67182;DHT22;54114;53.524;49.396;2022-11-20T08:47:44;6.30;74.50
67182;DHT22;54114;53.524;49.396;2022-11-20T08:50:11;6.40;74.40
67182;DHT22;54114;53.524;49.396;2022-11-20T08:52:38;6.50;74.30
67182;DHT22;54114;53.524;49.396;2022-11-20T08:55:05;6.50;74.00
67182;DHT22;54114;53.524;49.396;2022-11-20T08:57:32;6.50;73.70
67182;DHT22;54114;53.524;49.396;2022-11-20T09:00:03;6.60;73.80
67182;DHT22;54114;53.524;49.396;2022-11-20T09:02:30;6.70;73.90
67182;DHT22;54114;53.524;49.396;2022-11-20T09:04:58;6.70;73.80
67182;DHT22;54114;53.524;49.396;2022-11-20T09:07:24;6.80;73.40
67182;DHT22;54114;53.524;49.396;2022-11-20T09:09:51;6.80;73.20
67182;DHT22;54114;53.524;49.396;2022-11-20T09:12:17;6.90;73.30
67182;DHT22;54114;53.524;49.396;2022-11-20T09:14:44;7.00;73.40
67182;DHT22;54114;53.524;49.396;2022-11-20T09:17:10;7.10;73.10
67182;DHT22;54114;53.524;49.396;2022-11-20T09:19:39;7.10;72.60
67182;DHT22;54114;53.524;49.396;2022-11-20T09:22:06;7.10;72.50
67182;DHT22;54114;53.524;49.396;2022-11-20T09:24:32;7.20;72.30
67182;DHT22;54114;53.524;49.396;2022-11-20T09:27:01;7.30;72.30
67182;DHT22;54114;53.524;49.396;2022-11-20T09:29:28;7.30;71.90
67182;DHT22;54114;53.524;49.396;2022-11-20T09:31:54;7.20;71.50
67182;DHT22;54114;53.524;49.396;2022-11-20T09:34:21;7.20;71.60
67182;DHT22;54114;53.524;49.396;2022-11-20T09:36:47;7.30;71.80
67182;DHT22;54114;53.524;49.396;2022-11-20T09:39:13;7.20;71.20
67182;DHT22;54114;53.524;49.396;2022-11-20T09:44:40;7.30;71.20
67182;DHT22;54114;53.524;49.396;2022-11-20T09:55:49;7.30;70.90
67182;DHT22;54114;53.524;49.396;2022-11-20T09:58:24;7.30;70.80
67182;DHT22;54114;53.524;49.396;2022-11-20T10:01:12;7.30;70.70
67182;DHT22;54114;53.524;49.396;2022-11-20T10:03:44;7.30;70.80
67182;DHT22;54114;53.524;49.396;2022-11-20T10:06:13;7.30;70.90
67182;DHT22;54114;53.524;49.396;2022-11-20T10:08:44;7.30;71.10
67182;DHT22;54114;53.524;49.396;2022-11-20T10:11:21;7.30;70.90
67182;DHT22;54114;53.524;49.396;2022-11-20T10:14:17;7.30;70.90
67182;DHT22;54114;53.524;49.396;2022-11-20T10:30:33;7.20;70.90
67182;DHT22;54114;53.524;49.396;2022-11-20T10:33:11;7.20;70.70
67182;DHT22;54114;53.524;49.396;2022-11-20T10:38:20;7.10;70.80
67182;DHT22;54114;53.524;49.396;2022-11-20T10:40:51;7.10;71.00
67182;DHT22;54114;53.524;49.396;2022-11-20T10:43:21;7.20;71.00
67182;DHT22;54114;53.524;49.396;2022-11-20T10:46:01;7.20;70.80
67182;DHT22;54114;53.524;49.396;2022-11-20T10:48:31;7.20;70.70
67182;DHT22;54114;53.524;49.396;2022-11-20T10:51:07;7.20;70.80
67182;DHT22;54114;53.524;49.396;2022-11-20T10:53:45;7.30;71.00
67182;DHT22;54114;53.524;49.396;2022-11-20T11:01:46;7.20;70.00
67182;DHT22;54114;53.524;49.396;2022-11-20T11:07:07;7.20;69.90
67182;DHT22;54114;53.524;49.396;2022-11-20T11:09:37;7.10;69.90
67182;DHT22;54114;53.524;49.396;2022-11-20T11:12:06;7.10;70.00
67182;DHT22;54114;53.524;49.396;2022-11-20T11:14:50;7.10;70.00
67182;DHT22;54114;53.524;49.396;2022-11-20T11:19:57;7.10;70.00
67182;DHT22;54114;53.524;49.396;2022-11-20T11:22:34;7.10;69.90
67182;DHT22;54114;53.524;49.396;2022-11-20T11:25:07;7.10;69.80
67182;DHT22;54114;53.524;49.396;2022-11-20T11:27:45;7.00;69.80
67182;DHT22;54114;53.524;49.396;2022-11-20T11:30:14;7.00;69.70
67182;DHT22;54114;53.524;49.396;2022-11-20T11:32:41;7.00;69.80
67182;DHT22;54114;53.524;49.396;2022-11-20T11:35:21;6.90;69.60
67182;DHT22;54114;53.524;49.396;2022-11-20T11:37:49;6.90;69.60
67182;DHT22;54114;53.524;49.396;2022-11-20T11:40:20;6.80;69.60
67182;DHT22;54114;53.524;49.396;2022-11-20T11:42:50;6.90;69.80
67182;DHT22;54114;53.524;49.396;2022-11-20T11:45:20;6.80;69.80
67182;DHT22;54114;53.524;49.396;2022-11-20T11:47:47;6.80;69.80
67182;DHT22;54114;53.524;49.396;2022-11-20T11:50:15;6.70;69.80
67182;DHT22;54114;53.524;49.396;2022-11-20T11:55:17;6.70;69.80
67182;DHT22;54114;53.524;49.396;2022-11-20T11:58:01;6.70;69.80
67182;DHT22;54114;53.524;49.396;2022-11-20T12:01:00;6.60;69.80
67182;DHT22;54114;53.524;49.396;2022-11-20T12:03:36;6.60;69.60
67182;DHT22;54114;53.524;49.396;2022-11-20T12:06:25;6.60;69.80
67182;DHT22;54114;53.524;49.396;2022-11-20T12:09:12;6.50;69.80
67182;DHT22;54114;53.524;49.396;2022-11-20T12:11:39;6.50;69.80
67182;DHT22;54114;53.524;49.396;2022-11-20T12:16:40;6.50;70.10
67182;DHT22;54114;53.524;49.396;2022-11-20T12:19:08;6.50;70.10
67182;DHT22;54114;53.524;49.396;2022-11-20T12:24:32;6.40;70.00
67182;DHT22;54114;53.524;49.396;2022-11-20T12:43:17;6.30;70.20
67182;DHT22;54114;53.524;49.396;2022-11-20T12:48:51;6.20;70.00
67182;DHT22;54114;53.524;49.396;2022-11-20T12:54:33;6.20;70.10
67182;DHT22;54114;53.524;49.396;2022-11-20T13:02:38;6.10;70.30
67182;DHT22;54114;53.524;49.396;2022-11-20T13:05:25;6.20;70.70
67182;DHT22;54114;53.524;49.396;2022-11-20T13:08:03;6.20;70.30
67182;DHT22;54114;53.524;49.396;2022-11-20T13:10:39;6.20;70.00
67182;DHT22;54114;53.524;49.396;2022-11-20T13:18:13;6.40;70.30
67182;DHT22;54114;53.524;49.396;2022-11-20T13:20:43;6.40;70.20
67182;DHT22;54114;53.524;49.396;2022-11-20T13:23:10;6.40;70.10
67182;DHT22;54114;53.524;49.396;2022-11-20T13:25:38;6.30;70.00
67182;DHT22;54114;53.524;49.396;2022-11-20T13:30:31;6.10;70.00
67182;DHT22;54114;53.524;49.396;2022-11-20T13:33:05;6.00;70.10
67182;DHT22;54114;53.524;49.396;2022-11-20T13:35:34;5.90;70.20
67182;DHT22;54114;53.524;49.396;2022-11-20T13:38:20;5.70;70.40
67182;DHT22;54114;53.524;49.396;2022-11-20T13:40:56;5.60;70.30
67182;DHT22;54114;53.524;49.396;2022-11-20T13:46:08;5.40;71.10
67182;DHT22;54114;53.524;49.396;2022-11-20T13:48:39;5.40;71.40
67182;DHT22;54114;53.524;49.396;2022-11-20T13:51:09;5.40;71.50
67182;DHT22;54114;53.524;49.396;2022-11-20T13:53:46;5.40;71.60
67182;DHT22;54114;53.524;49.396;2022-11-20T14:02:16;5.50;71.70
67182;DHT22;54114;53.524;49.396;2022-11-20T14:04:47;5.50;71.70
67182;DHT22;54114;53.524;49.396;2022-11-20T14:07:16;5.50;71.50
67182;DHT22;54114;53.524;49.396;2022-11-20T14:09:53;5.40;71.40
67182;DHT22;54114;53.524;49.396;2022-11-20T14:12:22;5.30;71.50
67182;DHT22;54114;53.524;49.396;2022-11-20T14:14:58;5.20;71.60
67182;DHT22;54114;53.524;49.396;2022-11-20T14:20:02;5.10;72.10
67182;DHT22;54114;53.524;49.396;2022-11-20T14:22:30;5.10;72.20
67182;DHT22;54114;53.524;49.396;2022-11-20T14:27:38;5.00;72.50
67182;DHT22;54114;53.524;49.396;2022-11-20T14:30:17;4.90;72.70
67182;DHT22;54114;53.524;49.396;2022-11-20T14:32:51;4.90;72.80
67182;DHT22;54114;53.524;49.396;2022-11-20T14:35:21;4.90;73.00
67182;DHT22;54114;53.524;49.396;2022-11-20T14:37:50;4.90;73.00
67182;DHT22;54114;53.524;49.396;2022-11-20T14:40:24;4.90;73.00
67182;DHT22;54114;53.524;49.396;2022-11-20T14:42:55;4.90;73.10
67182;DHT22;54114;53.524;49.396;2022-11-20T14:45:22;4.90;73.20
67182;DHT22;54114;53.524;49.396;2022-11-20T14:47:49;4.80;73.20
67182;DHT22;54114;53.524;49.396;2022-11-20T14:50:27;4.80;73.20
67182;DHT22;54114;53.524;49.396;2022-11-20T14:52:58;4.80;73.40
67182;DHT22;54114;53.524;49.396;2022-11-20T14:55:29;4.80;73.40
67182;DHT22;54114;53.524;49.396;2022-11-20T14:57:57;4.80;73.50
67182;DHT22;54114;53.524;49.396;2022-11-20T15:00:26;4.70;73.60
67182;DHT22;54114;53.524;49.396;2022-11-20T15:02:52;4.80;73.70
67182;DHT22;54114;53.524;49.396;2022-11-20T15:05:20;4.70;73.50
67182;DHT22;54114;53.524;49.396;2022-11-20T15:10:48;4.70;73.70
67182;DHT22;54114;53.524;49.396;2022-11-20T15:13:17;4.70;73.80
67182;DHT22;54114;53.524;49.396;2022-11-20T15:15:52;4.70;73.80
67182;DHT22;54114;53.524;49.396;2022-11-20T15:18:21;4.70;73.90
67182;DHT22;54114;53.524;49.396;2022-11-20T15:20:50;4.70;73.90
67182;DHT22;54114;53.524;49.396;2022-11-20T15:23:17;4.70;73.90
67182;DHT22;54114;53.524;49.396;2022-11-20T15:25:45;4.60;73.90
67182;DHT22;54114;53.524;49.396;2022-11-20T15:28:23;4.70;74.20
67182;DHT22;54114;53.524;49.396;2022-11-20T15:30:55;4.70;74.20
67182;DHT22;54114;53.524;49.396;2022-11-20T15:33:22;4.70;74.20
67182;DHT22;54114;53.524;49.396;2022-11-20T15:35:48;4.70;74.20
67182;DHT22;54114;53.524;49.396;2022-11-20T15:38:14;4.70;74.20
67182;DHT22;54114;53.524;49.396;2022-11-20T15:40:41;4.70;74.90
67182;DHT22;54114;53.524;49.396;2022-11-20T15:43:08;4.70;74.20
67182;DHT22;54114;53.524;49.396;2022-11-20T15:45:38;4.70;74.30
67182;DHT22;54114;53.524;49.396;2022-11-20T15:48:16;4.70;74.40
67182;DHT22;54114;53.524;49.396;2022-11-20T15:51:27;4.70;74.40
67182;DHT22;54114;53.524;49.396;2022-11-20T15:53:40;4.70;74.40
67182;DHT22;54114;53.524;49.396;2022-11-20T15:56:13;4.70;74.50
67182;DHT22;54114;53.524;49.396;2022-11-20T15:58:40;4.70;74.50
67182;DHT22;54114;53.524;49.396;2022-11-20T16:01:17;4.70;74.40
67182;DHT22;54114;53.524;49.396;2022-11-20T16:03:45;4.70;74.50
67182;DHT22;54114;53.524;49.396;2022-11-20T16:06:11;4.70;74.60
67182;DHT22;54114;53.524;49.396;2022-11-20T16:08:38;4.70;74.70
67182;DHT22;54114;53.524;49.396;2022-11-20T16:11:05;4.70;74.80
67182;DHT22;54114;53.524;49.396;2022-11-20T16:13:32;4.70;74.80
67182;DHT22;54114;53.524;49.396;2022-11-20T16:16:19;4.70;74.70
67182;DHT22;54114;53.524;49.396;2022-11-20T16:18:45;4.70;74.80
67182;DHT22;54114;53.524;49.396;2022-11-20T16:21:11;4.70;74.80
67182;DHT22;54114;53.524;49.396;2022-11-20T16:23:41;4.70;75.00
67182;DHT22;54114;53.524;49.396;2022-11-20T16:28:38;4.70;75.00
67182;DHT22;54114;53.524;49.396;2022-11-20T16:31:23;4.70;75.00
67182;DHT22;54114;53.524;49.396;2022-11-20T16:33:50;4.70;75.10
67182;DHT22;54114;53.524;49.396;2022-11-20T16:36:17;4.70;75.10
67182;DHT22;54114;53.524;49.396;2022-11-20T16:38:44;4.70;75.10
67182;DHT22;54114;53.524;49.396;2022-11-20T16:41:10;4.70;75.30
67182;DHT22;54114;53.524;49.396;2022-11-20T16:43:47;4.70;75.30
67182;DHT22;54114;53.524;49.396;2022-11-20T16:46:17;4.70;75.30
67182;DHT22;54114;53.524;49.396;2022-11-20T16:48:46;4.70;75.30
67182;DHT22;54114;53.524;49.396;2022-11-20T16:51:18;4.60;75.30
67182;DHT22;54114;53.524;49.396;2022-11-20T16:53:45;4.70;75.50
67182;DHT22;54114;53.524;49.396;2022-11-20T16:56:16;4.60;76.00
67182;DHT22;54114;53.524;49.396;2022-11-20T16:58:43;4.60;75.40
67182;DHT22;54114;53.524;49.396;2022-11-20T17:01:11;4.60;75.50
67182;DHT22;54114;53.524;49.396;2022-11-20T17:03:39;4.60;75.60
67182;DHT22;54114;53.524;49.396;2022-11-20T17:06:13;4.70;75.70
67182;DHT22;54114;53.524;49.396;2022-11-20T17:08:41;4.70;75.70
67182;DHT22;54114;53.524;49.396;2022-11-20T17:11:09;4.70;75.70
67182;DHT22;54114;53.524;49.396;2022-11-20T17:13:40;4.70;75.70
67182;DHT22;54114;53.524;49.396;2022-11-20T17:16:10;4.70;75.60
67182;DHT22;54114;53.524;49.396;2022-11-20T17:18:43;4.70;75.60
67182;DHT22;54114;53.524;49.396;2022-11-20T17:21:09;4.70;75.70
67182;DHT22;54114;53.524;49.396;2022-11-20T17:23:37;4.70;75.70
67182;DHT22;54114;53.524;49.396;2022-11-20T17:28:42;4.60;75.80
67182;DHT22;54114;53.524;49.396;2022-11-20T17:31:14;4.70;75.80
67182;DHT22;54114;53.524;49.396;2022-11-20T17:33:41;4.70;75.80
67182;DHT22;54114;53.524;49.396;2022-11-20T17:36:09;4.70;75.80
67182;DHT22;54114;53.524;49.396;2022-11-20T17:38:39;4.70;75.80
67182;DHT22;54114;53.524;49.396;2022-11-20T17:41:10;4.70;75.70